sensor_id;sensor_type;location;lat;lon;timestamp;temperature;humidity
12981;DHT22;6555;50.468;8.480;2023-04-25T00:00:14;11.80;55.30
12981;DHT22;6555;50.468;8.480;2023-04-25T00:05:35;11.70;55.60
12981;DHT22;6555;50.468;8.480;2023-04-25T00:11:06;11.70;55.40
12981;DHT22;6555;50.468;8.480;2023-04-25T00:16:22;11.70;55.70
12981;DHT22;6555;50.468;8.480;2023-04-25T00:21:57;11.70;55.40
12981;DHT22;6555;50.468;8.480;2023-04-25T00:27:18;11.70;55.90
12981;DHT22;6555;50.468;8.480;2023-04-25T00:32:48;11.60;55.50
12981;DHT22;6555;50.468;8.480;2023-04-25T00:38:06;11.60;55.80
12981;DHT22;6555;50.468;8.480;2023-04-25T00:43:42;11.60;55.60
12981;DHT22;6555;50.468;8.480;2023-04-25T00:49:03;11.50;55.80
12981;DHT22;6555;50.468;8.480;2023-04-25T00:54:38;11.50;55.60
12981;DHT22;6555;50.468;8.480;2023-04-25T01:00:03;11.50;55.90
12981;DHT22;6555;50.468;8.480;2023-04-25T01:05:55;11.40;55.80
12981;DHT22;6555;50.468;8.480;2023-04-25T01:11:28;11.40;56.60
12981;DHT22;6555;50.468;8.480;2023-04-25T01:16:48;11.40;55.90
12981;DHT22;6555;50.468;8.480;2023-04-25T01:22:23;11.40;55.80
12981;DHT22;6555;50.468;8.480;2023-04-25T01:27:40;11.30;56.10
12981;DHT22;6555;50.468;8.480;2023-04-25T01:33:14;11.30;55.60
12981;DHT22;6555;50.468;8.480;2023-04-25T01:38:36;11.30;55.80
12981;DHT22;6555;50.468;8.480;2023-04-25T01:44:09;11.20;55.50
12981;DHT22;6555;50.468;8.480;2023-04-25T01:49:49;11.10;55.70
12981;DHT22;6555;50.468;8.480;2023-04-25T01:55:22;11.00;55.90
12981;DHT22;6555;50.468;8.480;2023-04-25T02:00:43;11.00;55.80
12981;DHT22;6555;50.468;8.480;2023-04-25T02:06:22;10.90;55.60
12981;DHT22;6555;50.468;8.480;2023-04-25T02:11:39;10.90;55.80
12981;DHT22;6555;50.468;8.480;2023-04-25T02:17:31;10.80;55.50
12981;DHT22;6555;50.468;8.480;2023-04-25T02:22:49;10.70;55.70
12981;DHT22;6555;50.468;8.480;2023-04-25T02:28:21;10.60;55.20
12981;DHT22;6555;50.468;8.480;2023-04-25T02:33:42;10.50;55.50
12981;DHT22;6555;50.468;8.480;2023-04-25T02:39:12;10.50;55.40
12981;DHT22;6555;50.468;8.480;2023-04-25T02:44:31;10.40;55.30
12981;DHT22;6555;50.468;8.480;2023-04-25T02:50:01;10.30;55.20
12981;DHT22;6555;50.468;8.480;2023-04-25T02:55:19;10.20;55.30
12981;DHT22;6555;50.468;8.480;2023-04-25T03:00:50;10.10;55.20
12981;DHT22;6555;50.468;8.480;2023-04-25T03:06:07;10.00;55.20
12981;DHT22;6555;50.468;8.480;2023-04-25T03:11:38;9.90;55.10
12981;DHT22;6555;50.468;8.480;2023-04-25T03:16:57;9.80;55.10
12981;DHT22;6555;50.468;8.480;2023-04-25T03:22:31;9.70;55.00
12981;DHT22;6555;50.468;8.480;2023-04-25T03:27:50;9.60;55.20
12981;DHT22;6555;50.468;8.480;2023-04-25T03:33:22;9.60;55.10
12981;DHT22;6555;50.468;8.480;2023-04-25T03:38:40;9.50;55.10
12981;DHT22;6555;50.468;8.480;2023-04-25T03:44:15;9.50;54.90
12981;DHT22;6555;50.468;8.480;2023-04-25T03:49:34;9.40;54.90
12981;DHT22;6555;50.468;8.480;2023-04-25T03:55:05;9.30;54.70
12981;DHT22;6555;50.468;8.480;2023-04-25T04:00:22;9.20;54.70
12981;DHT22;6555;50.468;8.480;2023-04-25T04:05:53;9.10;54.70
12981;DHT22;6555;50.468;8.480;2023-04-25T04:11:13;9.00;54.80
12981;DHT22;6555;50.468;8.480;2023-04-25T04:16:44;9.00;54.80
12981;DHT22;6555;50.468;8.480;2023-04-25T04:22:06;8.90;55.00
12981;DHT22;6555;50.468;8.480;2023-04-25T04:27:40;8.80;54.80
12981;DHT22;6555;50.468;8.480;2023-04-25T04:33:19;8.80;54.80
12981;DHT22;6555;50.468;8.480;2023-04-25T04:39:26;8.70;54.80
12981;DHT22;6555;50.468;8.480;2023-04-25T04:45:10;8.60;55.00
12981;DHT22;6555;50.468;8.480;2023-04-25T04:50:52;8.50;55.00
12981;DHT22;6555;50.468;8.480;2023-04-25T04:56:20;8.50;55.20
12981;DHT22;6555;50.468;8.480;2023-04-25T05:02:11;8.60;55.10
12981;DHT22;6555;50.468;8.480;2023-04-25T05:07:49;8.60;55.20
12981;DHT22;6555;50.468;8.480;2023-04-25T05:13:56;8.60;55.10
12981;DHT22;6555;50.468;8.480;2023-04-25T05:19:23;8.60;55.30
12981;DHT22;6555;50.468;8.480;2023-04-25T05:24:59;8.70;55.20
12981;DHT22;6555;50.468;8.480;2023-04-25T05:30:46;8.70;55.20
12981;DHT22;6555;50.468;8.480;2023-04-25T05:36:27;8.70;55.00
12981;DHT22;6555;50.468;8.480;2023-04-25T05:41:43;8.70;55.20
12981;DHT22;6555;50.468;8.480;2023-04-25T05:47:37;8.70;55.20
12981;DHT22;6555;50.468;8.480;2023-04-25T05:53:08;8.70;55.50
12981;DHT22;6555;50.468;8.480;2023-04-25T05:58:41;8.80;55.40
12981;DHT22;6555;50.468;8.480;2023-04-25T06:03:58;8.80;55.60
12981;DHT22;6555;50.468;8.480;2023-04-25T06:09:29;8.90;55.80
12981;DHT22;6555;50.468;8.480;2023-04-25T06:14:45;9.00;55.90
12981;DHT22;6555;50.468;8.480;2023-04-25T06:20:16;9.10;55.90
12981;DHT22;6555;50.468;8.480;2023-04-25T06:25:35;9.20;56.00
12981;DHT22;6555;50.468;8.480;2023-04-25T06:31:06;9.30;56.00
12981;DHT22;6555;50.468;8.480;2023-04-25T06:36:26;9.40;56.00
12981;DHT22;6555;50.468;8.480;2023-04-25T06:41:57;9.50;56.00
12981;DHT22;6555;50.468;8.480;2023-04-25T06:47:33;9.60;56.10
12981;DHT22;6555;50.468;8.480;2023-04-25T06:53:05;9.80;56.30
12981;DHT22;6555;50.468;8.480;2023-04-25T06:58:30;10.00;56.40
12981;DHT22;6555;50.468;8.480;2023-04-25T07:04:12;10.10;56.10
12981;DHT22;6555;50.468;8.480;2023-04-25T07:09:32;10.30;56.70
12981;DHT22;6555;50.468;8.480;2023-04-25T07:15:02;10.30;55.80
12981;DHT22;6555;50.468;8.480;2023-04-25T07:20:26;10.40;55.60
12981;DHT22;6555;50.468;8.480;2023-04-25T07:26:06;10.40;55.60
12981;DHT22;6555;50.468;8.480;2023-04-25T07:31:43;10.50;55.60
12981;DHT22;6555;50.468;8.480;2023-04-25T07:37:15;10.50;55.60
12981;DHT22;6555;50.468;8.480;2023-04-25T07:42:44;10.60;55.60
12981;DHT22;6555;50.468;8.480;2023-04-25T07:48:21;10.60;55.50
12981;DHT22;6555;50.468;8.480;2023-04-25T07:53:38;10.70;55.50
12981;DHT22;6555;50.468;8.480;2023-04-25T07:59:13;10.80;55.40
12981;DHT22;6555;50.468;8.480;2023-04-25T08:04:29;10.80;55.50
12981;DHT22;6555;50.468;8.480;2023-04-25T08:10:01;10.90;56.30
12981;DHT22;6555;50.468;8.480;2023-04-25T08:15:19;11.00;55.40
12981;DHT22;6555;50.468;8.480;2023-04-25T08:20:50;11.10;55.70
12981;DHT22;6555;50.468;8.480;2023-04-25T08:26:10;11.20;55.60
12981;DHT22;6555;50.468;8.480;2023-04-25T08:31:51;11.40;55.60
12981;DHT22;6555;50.468;8.480;2023-04-25T08:37:13;11.50;55.60
12981;DHT22;6555;50.468;8.480;2023-04-25T08:42:53;11.70;55.70
12981;DHT22;6555;50.468;8.480;2023-04-25T08:48:15;11.80;55.00
12981;DHT22;6555;50.468;8.480;2023-04-25T08:53:46;11.90;55.10
12981;DHT22;6555;50.468;8.480;2023-04-25T08:59:17;11.90;54.60
12981;DHT22;6555;50.468;8.480;2023-04-25T09:04:51;11.90;54.60
12981;DHT22;6555;50.468;8.480;2023-04-25T09:10:20;11.90;54.20
12981;DHT22;6555;50.468;8.480;2023-04-25T09:15:53;11.80;53.60
12981;DHT22;6555;50.468;8.480;2023-04-25T09:21:37;11.60;53.50
12981;DHT22;6555;50.468;8.480;2023-04-25T09:27:09;11.40;53.70
12981;DHT22;6555;50.468;8.480;2023-04-25T09:32:35;11.30;53.50
12981;DHT22;6555;50.468;8.480;2023-04-25T09:38:12;11.20;53.90
12981;DHT22;6555;50.468;8.480;2023-04-25T09:43:35;11.20;54.50
12981;DHT22;6555;50.468;8.480;2023-04-25T09:49:10;11.20;54.30
12981;DHT22;6555;50.468;8.480;2023-04-25T09:54:41;11.20;54.50
12981;DHT22;6555;50.468;8.480;2023-04-25T10:00:20;11.40;54.70
12981;DHT22;6555;50.468;8.480;2023-04-25T10:05:55;11.60;54.60
12981;DHT22;6555;50.468;8.480;2023-04-25T10:11:30;11.70;54.70
12981;DHT22;6555;50.468;8.480;2023-04-25T10:16:48;11.90;54.10
12981;DHT22;6555;50.468;8.480;2023-04-25T10:22:30;12.00;54.40
12981;DHT22;6555;50.468;8.480;2023-04-25T10:27:53;12.20;53.70
12981;DHT22;6555;50.468;8.480;2023-04-25T10:33:32;12.20;53.90
12981;DHT22;6555;50.468;8.480;2023-04-25T10:38:51;12.40;53.40
12981;DHT22;6555;50.468;8.480;2023-04-25T10:44:37;12.40;53.90
12981;DHT22;6555;50.468;8.480;2023-04-25T10:50:17;12.50;53.80
12981;DHT22;6555;50.468;8.480;2023-04-25T10:56:09;12.60;54.00
12981;DHT22;6555;50.468;8.480;2023-04-25T11:01:45;12.80;53.40
12981;DHT22;6555;50.468;8.480;2023-04-25T11:08:42;12.90;53.40
12981;DHT22;6555;50.468;8.480;2023-04-25T11:15:29;13.00;52.30
12981;DHT22;6555;50.468;8.480;2023-04-25T11:21:08;12.90;52.20
12981;DHT22;6555;50.468;8.480;2023-04-25T11:27:10;12.90;52.70
12981;DHT22;6555;50.468;8.480;2023-04-25T11:32:20;12.80;52.30
12981;DHT22;6555;50.468;8.480;2023-04-25T11:37:30;12.70;52.10
12981;DHT22;6555;50.468;8.480;2023-04-25T11:42:43;12.60;52.00
12981;DHT22;6555;50.468;8.480;2023-04-25T11:47:47;12.40;52.10
12981;DHT22;6555;50.468;8.480;2023-04-25T11:52:56;12.40;52.10
12981;DHT22;6555;50.468;8.480;2023-04-25T11:58:00;12.40;52.50
12981;DHT22;6555;50.468;8.480;2023-04-25T12:03:09;12.50;53.40
12981;DHT22;6555;50.468;8.480;2023-04-25T12:08:22;12.80;53.50
12981;DHT22;6555;50.468;8.480;2023-04-25T12:13:26;13.00;53.00
12981;DHT22;6555;50.468;8.480;2023-04-25T12:18:39;13.10;52.70
12981;DHT22;6555;50.468;8.480;2023-04-25T12:23:45;13.20;52.70
12981;DHT22;6555;50.468;8.480;2023-04-25T12:28:50;13.30;52.30
12981;DHT22;6555;50.468;8.480;2023-04-25T12:34:01;13.30;52.40
12981;DHT22;6555;50.468;8.480;2023-04-25T12:39:06;13.40;51.90
12981;DHT22;6555;50.468;8.480;2023-04-25T12:44:20;13.50;51.30
12981;DHT22;6555;50.468;8.480;2023-04-25T12:49:28;13.50;51.70
12981;DHT22;6555;50.468;8.480;2023-04-25T12:54:34;13.70;52.00
12981;DHT22;6555;50.468;8.480;2023-04-25T12:59:42;13.90;51.30
12981;DHT22;6555;50.468;8.480;2023-04-25T13:04:49;14.00;51.30
12981;DHT22;6555;50.468;8.480;2023-04-25T13:16:27;14.20;49.40
12981;DHT22;6555;50.468;8.480;2023-04-25T13:21:31;14.20;50.10
12981;DHT22;6555;50.468;8.480;2023-04-25T13:26:42;14.30;50.00
12981;DHT22;6555;50.468;8.480;2023-04-25T13:32:16;14.50;49.80
12981;DHT22;6555;50.468;8.480;2023-04-25T13:37:19;14.60;49.30
12981;DHT22;6555;50.468;8.480;2023-04-25T13:42:28;14.60;49.50
12981;DHT22;6555;50.468;8.480;2023-04-25T13:47:36;14.50;49.30
12981;DHT22;6555;50.468;8.480;2023-04-25T13:52:42;14.40;49.20
12981;DHT22;6555;50.468;8.480;2023-04-25T13:57:48;14.30;49.10
12981;DHT22;6555;50.468;8.480;2023-04-25T14:02:54;14.10;49.40
12981;DHT22;6555;50.468;8.480;2023-04-25T14:07:58;14.00;49.30
12981;DHT22;6555;50.468;8.480;2023-04-25T14:13:04;14.00;49.70
12981;DHT22;6555;50.468;8.480;2023-04-25T14:18:12;13.90;49.70
12981;DHT22;6555;50.468;8.480;2023-04-25T14:23:21;14.00;49.80
12981;DHT22;6555;50.468;8.480;2023-04-25T14:28:31;14.00;48.90
12981;DHT22;6555;50.468;8.480;2023-04-25T14:33:46;13.90;48.50
12981;DHT22;6555;50.468;8.480;2023-04-25T14:39:02;13.90;48.40
12981;DHT22;6555;50.468;8.480;2023-04-25T14:44:07;13.90;48.40
12981;DHT22;6555;50.468;8.480;2023-04-25T14:49:14;13.90;48.40
12981;DHT22;6555;50.468;8.480;2023-04-25T14:54:18;14.00;48.80
12981;DHT22;6555;50.468;8.480;2023-04-25T14:59:37;14.20;49.50
12981;DHT22;6555;50.468;8.480;2023-04-25T15:04:42;14.50;48.70
12981;DHT22;6555;50.468;8.480;2023-04-25T15:09:49;14.70;48.70
12981;DHT22;6555;50.468;8.480;2023-04-25T15:14:59;14.80;48.50
12981;DHT22;6555;50.468;8.480;2023-04-25T15:20:07;14.90;48.30
12981;DHT22;6555;50.468;8.480;2023-04-25T15:25:20;14.80;47.60
12981;DHT22;6555;50.468;8.480;2023-04-25T15:30:24;14.70;47.00
12981;DHT22;6555;50.468;8.480;2023-04-25T15:35:31;14.60;47.00
12981;DHT22;6555;50.468;8.480;2023-04-25T15:40:42;14.30;47.10
12981;DHT22;6555;50.468;8.480;2023-04-25T15:45:52;14.10;47.60
12981;DHT22;6555;50.468;8.480;2023-04-25T15:50:59;14.00;47.70
12981;DHT22;6555;50.468;8.480;2023-04-25T15:56:11;13.90;47.70
12981;DHT22;6555;50.468;8.480;2023-04-25T16:01:28;13.80;47.70
12981;DHT22;6555;50.468;8.480;2023-04-25T16:06:42;13.80;47.50
12981;DHT22;6555;50.468;8.480;2023-04-25T16:18:30;14.10;47.90
12981;DHT22;6555;50.468;8.480;2023-04-25T16:24:59;14.20;47.90
12981;DHT22;6555;50.468;8.480;2023-04-25T16:31:19;14.30;47.30
12981;DHT22;6555;50.468;8.480;2023-04-25T16:43:40;14.00;46.50
12981;DHT22;6555;50.468;8.480;2023-04-25T16:49:36;13.90;46.70
12981;DHT22;6555;50.468;8.480;2023-04-25T17:00:35;13.80;47.40
12981;DHT22;6555;50.468;8.480;2023-04-25T17:05:39;13.70;46.80
12981;DHT22;6555;50.468;8.480;2023-04-25T17:11:08;13.70;47.10
12981;DHT22;6555;50.468;8.480;2023-04-25T17:16:35;13.60;46.70
12981;DHT22;6555;50.468;8.480;2023-04-25T17:21:42;13.40;46.00
12981;DHT22;6555;50.468;8.480;2023-04-25T17:26:55;13.40;46.90
12981;DHT22;6555;50.468;8.480;2023-04-25T17:32:13;13.30;46.50
12981;DHT22;6555;50.468;8.480;2023-04-25T17:37:18;13.20;46.80
12981;DHT22;6555;50.468;8.480;2023-04-25T17:42:22;13.10;46.60
12981;DHT22;6555;50.468;8.480;2023-04-25T17:47:34;13.00;46.40
12981;DHT22;6555;50.468;8.480;2023-04-25T17:53:01;12.90;46.10
12981;DHT22;6555;50.468;8.480;2023-04-25T17:58:09;12.80;46.70
12981;DHT22;6555;50.468;8.480;2023-04-25T18:03:15;12.70;46.80
12981;DHT22;6555;50.468;8.480;2023-04-25T18:08:19;12.60;46.60
12981;DHT22;6555;50.468;8.480;2023-04-25T18:13:24;12.60;47.00
12981;DHT22;6555;50.468;8.480;2023-04-25T18:18:29;12.60;47.00
12981;DHT22;6555;50.468;8.480;2023-04-25T18:23:39;12.50;47.00
12981;DHT22;6555;50.468;8.480;2023-04-25T18:28:43;12.50;47.10
12981;DHT22;6555;50.468;8.480;2023-04-25T18:33:49;12.40;47.00
12981;DHT22;6555;50.468;8.480;2023-04-25T18:38:56;12.40;47.00
12981;DHT22;6555;50.468;8.480;2023-04-25T18:44:19;12.30;47.10
12981;DHT22;6555;50.468;8.480;2023-04-25T18:49:26;12.20;47.00
12981;DHT22;6555;50.468;8.480;2023-04-25T18:54:29;12.10;46.90
12981;DHT22;6555;50.468;8.480;2023-04-25T18:59:34;12.00;47.00
12981;DHT22;6555;50.468;8.480;2023-04-25T19:04:39;11.90;47.00
12981;DHT22;6555;50.468;8.480;2023-04-25T19:09:43;11.80;46.90
12981;DHT22;6555;50.468;8.480;2023-04-25T19:14:46;11.70;47.10
12981;DHT22;6555;50.468;8.480;2023-04-25T19:19:52;11.70;47.10
12981;DHT22;6555;50.468;8.480;2023-04-25T19:24:56;11.60;47.00
12981;DHT22;6555;50.468;8.480;2023-04-25T19:30:12;11.50;47.10
12981;DHT22;6555;50.468;8.480;2023-04-25T19:35:17;11.40;47.20
12981;DHT22;6555;50.468;8.480;2023-04-25T19:40:42;11.40;47.20
12981;DHT22;6555;50.468;8.480;2023-04-25T19:45:46;11.40;47.00
12981;DHT22;6555;50.468;8.480;2023-04-25T19:50:51;11.30;47.00
12981;DHT22;6555;50.468;8.480;2023-04-25T20:02:27;11.00;47.40
12981;DHT22;6555;50.468;8.480;2023-04-25T20:07:33;10.90;46.90
12981;DHT22;6555;50.468;8.480;2023-04-25T20:12:43;10.70;46.80
12981;DHT22;6555;50.468;8.480;2023-04-25T20:17:56;10.60;46.80
12981;DHT22;6555;50.468;8.480;2023-04-25T20:28:49;10.20;47.10
12981;DHT22;6555;50.468;8.480;2023-04-25T20:34:10;10.20;47.20
12981;DHT22;6555;50.468;8.480;2023-04-25T20:40:00;10.10;47.50
12981;DHT22;6555;50.468;8.480;2023-04-25T20:45:11;10.00;47.50
12981;DHT22;6555;50.468;8.480;2023-04-25T20:57:11;9.90;47.50
12981;DHT22;6555;50.468;8.480;2023-04-25T21:02:16;9.80;47.40
12981;DHT22;6555;50.468;8.480;2023-04-25T21:07:21;9.70;47.50
12981;DHT22;6555;50.468;8.480;2023-04-25T21:12:32;9.60;47.50
12981;DHT22;6555;50.468;8.480;2023-04-25T21:17:37;9.60;47.70
12981;DHT22;6555;50.468;8.480;2023-04-25T21:22:43;9.50;47.80
12981;DHT22;6555;50.468;8.480;2023-04-25T21:27:57;9.50;47.80
12981;DHT22;6555;50.468;8.480;2023-04-25T21:33:02;9.40;47.70
12981;DHT22;6555;50.468;8.480;2023-04-25T21:38:05;9.40;47.60
12981;DHT22;6555;50.468;8.480;2023-04-25T21:43:11;9.20;47.50
12981;DHT22;6555;50.468;8.480;2023-04-25T21:48:15;9.10;47.50
12981;DHT22;6555;50.468;8.480;2023-04-25T21:53:30;9.00;47.50
12981;DHT22;6555;50.468;8.480;2023-04-25T21:58:38;8.90;47.80
12981;DHT22;6555;50.468;8.480;2023-04-25T22:03:44;8.80;47.70
12981;DHT22;6555;50.468;8.480;2023-04-25T22:08:48;8.80;47.20
12981;DHT22;6555;50.468;8.480;2023-04-25T22:13:55;8.70;47.80
12981;DHT22;6555;50.468;8.480;2023-04-25T22:19:05;8.70;47.90
12981;DHT22;6555;50.468;8.480;2023-04-25T22:24:10;8.60;47.80
12981;DHT22;6555;50.468;8.480;2023-04-25T22:29:15;8.50;47.90
12981;DHT22;6555;50.468;8.480;2023-04-25T22:34:21;8.50;47.90
12981;DHT22;6555;50.468;8.480;2023-04-25T22:39:25;8.40;47.80
12981;DHT22;6555;50.468;8.480;2023-04-25T22:44:30;8.40;47.80
12981;DHT22;6555;50.468;8.480;2023-04-25T22:49:38;8.30;47.80
12981;DHT22;6555;50.468;8.480;2023-04-25T22:54:42;8.20;47.90
12981;DHT22;6555;50.468;8.480;2023-04-25T22:59:47;8.10;47.90
12981;DHT22;6555;50.468;8.480;2023-04-25T23:04:50;8.10;48.00
12981;DHT22;6555;50.468;8.480;2023-04-25T23:09:55;8.00;47.90
12981;DHT22;6555;50.468;8.480;2023-04-25T23:15:01;8.00;48.00
12981;DHT22;6555;50.468;8.480;2023-04-25T23:20:09;7.90;47.90
12981;DHT22;6555;50.468;8.480;2023-04-25T23:25:13;7.90;48.10
12981;DHT22;6555;50.468;8.480;2023-04-25T23:30:18;7.80;47.90
12981;DHT22;6555;50.468;8.480;2023-04-25T23:35:23;7.70;47.90
12981;DHT22;6555;50.468;8.480;2023-04-25T23:40:31;7.60;47.90
12981;DHT22;6555;50.468;8.480;2023-04-25T23:45:36;7.60;47.90
12981;DHT22;6555;50.468;8.480;2023-04-25T23:50:39;7.50;48.00
12981;DHT22;6555;50.468;8.480;2023-04-25T23:55:43;7.40;48.00
